Providence, Rhode Island
Traffic Map
Current Weather Conditions
Providence, Rhode Island
Overcast
Overcast
40°
Feels Like: 36°
Wind Chill: 36° Ceiling: 4900
Heat Index: 40° Visibility: 10mi
Dew Point: 37° Wind: 6mph
Humidity: 89% Direction: 30° (NNE)
Pressure: 30.27in Gusts: 0mph
Raw Report DataKPVD 230451Z 03005KT 10SM OVC049 04/03 A3027 RMK AO2 SLP249 LAST AUGMENTED T00440028 400670006
Traffic Incident Summary
Active as of:
Severity:
Category:
InformationThere was an issue retrieving the traffic information for this location. Please try a different location or try again shortly.
Advertisements
Track Severe Weather on mobile